createdAt,value
2022-08-22T00:00:37.719Z,20.22
2022-08-22T00:02:06.507Z,20.23
2022-08-22T00:02:48.246Z,20.01
2022-08-22T00:02:54.635Z,19.08
2022-08-22T00:02:55.384Z,19.83
2022-08-22T00:02:57.677Z,20.07
2022-08-22T00:03:02.259Z,19.84
2022-08-22T00:03:09.333Z,19.55
2022-08-22T00:03:35.372Z,20.21
2022-08-22T00:04:47.481Z,20.20
2022-08-22T00:05:59.440Z,20.16
2022-08-22T00:07:35.969Z,20.20
2022-08-22T00:09:08.824Z,20.14
2022-08-22T00:10:13.456Z,20.11
2022-08-22T00:11:26.991Z,20.07
2022-08-22T00:12:34.340Z,20.08
2022-08-22T00:14:05.476Z,20.01
2022-08-22T00:15:42.243Z,19.94
2022-08-22T00:17:02.721Z,19.89
2022-08-22T00:18:28.553Z,19.87
2022-08-22T00:19:48.730Z,19.88
2022-08-22T00:21:02.328Z,19.63
2022-08-22T00:22:37.604Z,19.86
2022-08-22T00:23:45.118Z,19.82
2022-08-22T00:24:55.554Z,19.69
2022-08-22T00:26:22.022Z,19.70
2022-08-22T00:27:29.519Z,19.66
2022-08-22T00:28:36.924Z,19.61
2022-08-22T00:29:56.365Z,19.59
2022-08-22T00:31:07.417Z,19.55
2022-08-22T00:32:15.825Z,19.54
2022-08-22T00:33:25.859Z,19.56
2022-08-22T00:34:46.316Z,19.56
2022-08-22T00:35:53.601Z,19.57
2022-08-22T00:37:27.438Z,19.59
2022-08-22T00:38:36.369Z,19.62
2022-08-22T00:39:47.641Z,19.64
2022-08-22T00:41:04.334Z,19.70
2022-08-22T00:42:29.106Z,19.76
2022-08-22T00:44:14.858Z,19.76
2022-08-22T00:45:22.447Z,19.76
2022-08-22T00:46:42.869Z,19.74
2022-08-22T00:48:43.217Z,19.74
2022-08-22T00:50:05.906Z,19.70
2022-08-22T00:51:29.200Z,19.70
2022-08-22T00:52:45.416Z,19.71
2022-08-22T00:54:06.801Z,19.66
2022-08-22T00:55:57.445Z,19.58
2022-08-22T00:57:18.368Z,19.47
2022-08-22T00:58:38.397Z,19.43
2022-08-22T00:59:52.381Z,19.35
2022-08-22T01:00:59.944Z,19.35
2022-08-22T01:02:28.625Z,19.29
2022-08-22T01:03:48.553Z,19.24
2022-08-22T01:04:59.259Z,19.20
2022-08-22T01:06:26.209Z,19.16
2022-08-22T01:07:48.558Z,19.10
2022-08-22T01:09:09.475Z,18.94
2022-08-22T01:10:40.670Z,18.97
2022-08-22T01:12:05.322Z,18.68
2022-08-22T01:13:34.531Z,18.87
2022-08-22T01:14:54.465Z,18.86
2022-08-22T01:16:23.897Z,18.88
2022-08-22T01:17:25.403Z,18.90
2022-08-22T01:18:36.206Z,18.87
2022-08-22T01:19:49.554Z,18.81
2022-08-22T01:21:28.528Z,18.85
2022-08-22T01:22:42.355Z,18.80
2022-08-22T01:24:19.482Z,18.70
2022-08-22T01:25:57.899Z,18.64
2022-08-22T01:27:37.943Z,18.56
2022-08-22T01:28:50.722Z,18.38
2022-08-22T01:30:16.419Z,18.31
2022-08-22T01:31:21.499Z,18.28
2022-08-22T01:33:07.975Z,18.20
2022-08-22T01:34:13.147Z,18.23
2022-08-22T01:35:32.844Z,18.22
2022-08-22T01:37:04.330Z,18.18
2022-08-22T01:38:14.688Z,18.17
2022-08-22T01:39:25.727Z,18.16
2022-08-22T01:40:53.567Z,17.93
2022-08-22T01:42:42.098Z,18.15
2022-08-22T01:44:11.105Z,18.17
2022-08-22T01:45:40.593Z,18.17
2022-08-22T01:46:54.315Z,18.13
2022-08-22T01:48:06.485Z,18.10
2022-08-22T01:49:29.576Z,18.07
2022-08-22T01:50:44.702Z,18.03
2022-08-22T01:51:59.794Z,17.91
2022-08-22T01:53:24.087Z,17.96
2022-08-22T01:54:51.890Z,17.89
2022-08-22T01:56:03.128Z,17.86
2022-08-22T01:57:10.037Z,17.89
2022-08-22T01:58:26.769Z,17.84
2022-08-22T01:59:36.866Z,17.72
2022-08-22T02:01:05.755Z,17.76
2022-08-22T02:02:31.086Z,17.73
2022-08-22T02:03:40.204Z,17.70
2022-08-22T02:05:07.332Z,17.66
2022-08-22T02:06:31.861Z,17.67
2022-08-22T02:07:48.068Z,17.64
2022-08-22T02:09:08.253Z,17.64
2022-08-22T02:10:24.609Z,17.63
2022-08-22T02:11:43.654Z,17.60
2022-08-22T02:13:02.447Z,17.60
2022-08-22T02:14:18.690Z,17.61
2022-08-22T02:15:38.414Z,17.60
2022-08-22T02:16:48.094Z,17.58
2022-08-22T02:18:05.523Z,17.58
2022-08-22T02:19:10.262Z,17.60
2022-08-22T02:20:24.921Z,17.59
2022-08-22T02:21:44.748Z,17.47
2022-08-22T02:23:17.870Z,17.60
2022-08-22T02:24:41.232Z,17.58
2022-08-22T02:25:48.676Z,17.57
2022-08-22T02:27:19.497Z,17.61
2022-08-22T02:28:57.368Z,17.63
2022-08-22T02:30:18.972Z,17.63
2022-08-22T02:31:24.843Z,17.62
2022-08-22T02:32:45.842Z,17.56
2022-08-22T02:33:56.742Z,17.58
2022-08-22T02:35:01.225Z,17.56
2022-08-22T02:36:14.315Z,17.53
2022-08-22T02:37:33.652Z,17.53
2022-08-22T02:39:00.781Z,17.52
2022-08-22T02:40:12.431Z,17.52
2022-08-22T02:41:25.011Z,17.51
2022-08-22T02:42:36.866Z,17.46
2022-08-22T02:44:17.198Z,17.48
2022-08-22T02:45:41.602Z,17.53
2022-08-22T02:46:58.921Z,17.50
2022-08-22T02:48:17.748Z,17.51
2022-08-22T02:49:33.236Z,17.49
2022-08-22T02:50:44.083Z,17.51
2022-08-22T02:52:09.534Z,17.27
2022-08-22T02:53:29.469Z,17.47
2022-08-22T02:54:36.949Z,17.46
2022-08-22T02:56:00.602Z,17.45
2022-08-22T02:57:14.547Z,17.55
2022-08-22T02:58:43.190Z,17.52
2022-08-22T03:00:32.789Z,17.49
2022-08-22T03:01:42.426Z,17.45
2022-08-22T03:02:59.208Z,17.46
2022-08-22T03:04:31.700Z,17.41
2022-08-22T03:05:36.431Z,17.38
2022-08-22T03:07:00.958Z,17.33
2022-08-22T03:08:17.282Z,17.30
2022-08-22T03:09:29.617Z,17.27
2022-08-22T03:10:44.107Z,17.23
2022-08-22T03:11:59.052Z,17.10
2022-08-22T03:13:11.758Z,17.10
2022-08-22T03:14:25.910Z,17.09
2022-08-22T03:15:59.432Z,17.02
2022-08-22T03:17:00.958Z,17.02
2022-08-22T03:18:21.469Z,16.98
2022-08-22T03:19:28.803Z,16.96
2022-08-22T03:20:49.365Z,16.95
2022-08-22T03:22:03.610Z,16.92
2022-08-22T03:23:43.435Z,16.88
2022-08-22T03:24:59.810Z,16.88
2022-08-22T03:26:01.344Z,16.87
2022-08-22T03:28:10.717Z,16.84
2022-08-22T03:29:20.458Z,16.72
2022-08-22T03:30:47.523Z,16.76
2022-08-22T03:32:21.903Z,16.76
2022-08-22T03:33:29.530Z,16.74
2022-08-22T03:34:31.184Z,16.73
2022-08-22T03:35:38.611Z,16.72
2022-08-22T03:36:47.986Z,16.69
2022-08-22T03:37:57.043Z,16.63
2022-08-22T03:39:25.009Z,16.61
2022-08-22T03:40:38.095Z,16.56
2022-08-22T03:41:49.999Z,16.51
2022-08-22T03:43:28.862Z,16.48
2022-08-22T03:44:56.334Z,16.46
2022-08-22T03:46:17.468Z,16.43
2022-08-22T03:47:43.055Z,16.42
2022-08-22T03:49:03.205Z,16.39
2022-08-22T03:50:22.868Z,16.39
2022-08-22T03:51:43.157Z,16.37
2022-08-22T03:53:15.361Z,16.33
2022-08-22T03:54:52.257Z,16.32
2022-08-22T03:56:12.811Z,16.29
2022-08-22T03:57:41.467Z,16.27
2022-08-22T03:59:20.002Z,16.22
2022-08-22T04:00:56.705Z,16.23
2022-08-22T04:02:31.497Z,15.88
2022-08-22T04:04:02.630Z,16.25
2022-08-22T04:05:16.469Z,16.27
2022-08-22T04:06:39.966Z,16.29
2022-08-22T04:08:06.747Z,16.30
2022-08-22T04:09:26.518Z,16.27
2022-08-22T04:11:03.711Z,16.18
2022-08-22T04:12:39.395Z,16.24
2022-08-22T04:14:02.708Z,16.21
2022-08-22T04:15:56.504Z,16.27
2022-08-22T04:17:20.120Z,16.30
2022-08-22T04:18:51.181Z,16.20
2022-08-22T04:19:52.705Z,16.31
2022-08-22T04:21:16.478Z,16.28
2022-08-22T04:22:27.185Z,16.31
2022-08-22T04:24:16.312Z,16.29
2022-08-22T04:25:26.820Z,16.24
2022-08-22T04:26:35.542Z,16.24
2022-08-22T04:27:43.644Z,16.25
2022-08-22T04:28:51.787Z,16.26
2022-08-22T04:30:06.382Z,16.28
2022-08-22T04:31:15.065Z,16.24
2022-08-22T04:32:46.985Z,16.28
2022-08-22T04:34:07.135Z,16.24
2022-08-22T04:35:10.912Z,16.29
2022-08-22T04:36:27.516Z,16.33
2022-08-22T04:37:36.048Z,16.33
2022-08-22T04:38:48.225Z,16.35
2022-08-22T04:40:09.927Z,16.33
2022-08-22T04:41:18.260Z,16.36
2022-08-22T04:42:32.561Z,16.38
2022-08-22T04:43:41.718Z,16.32
2022-08-22T04:45:01.150Z,16.33
2022-08-22T04:46:11.253Z,16.27
2022-08-22T04:47:26.922Z,16.31
2022-08-22T04:48:40.904Z,16.30
2022-08-22T04:49:51.826Z,16.35
2022-08-22T04:51:03.231Z,16.37
2022-08-22T04:52:31.794Z,16.40
2022-08-22T04:53:45.566Z,16.41
2022-08-22T04:55:12.947Z,16.39
2022-08-22T04:56:27.034Z,16.40
2022-08-22T04:57:45.861Z,16.41
2022-08-22T04:59:16.352Z,16.41
2022-08-22T05:00:18.149Z,16.42
2022-08-22T05:01:28.060Z,16.37
2022-08-22T05:02:29.669Z,16.44
2022-08-22T05:03:35.595Z,16.46
2022-08-22T05:04:45.361Z,16.49
2022-08-22T05:05:48.299Z,16.48
2022-08-22T05:07:03.579Z,16.51
2022-08-22T05:08:08.942Z,16.44
2022-08-22T05:09:18.902Z,16.52
2022-08-22T05:10:37.926Z,16.52
2022-08-22T05:11:42.385Z,16.51
2022-08-22T05:12:54.782Z,16.53
2022-08-22T05:14:15.336Z,16.54
2022-08-22T05:15:23.103Z,16.55
2022-08-22T05:16:30.971Z,16.52
2022-08-22T05:17:33.772Z,16.59
2022-08-22T05:18:44.436Z,16.55
2022-08-22T05:19:51.450Z,16.57
2022-08-22T05:20:56.284Z,16.65
2022-08-22T05:21:58.030Z,16.68
2022-08-22T05:23:17.276Z,16.69
2022-08-22T05:24:46.201Z,16.68
2022-08-22T05:25:52.284Z,16.69
2022-08-22T05:26:59.508Z,16.73
2022-08-22T05:28:13.762Z,16.56
2022-08-22T05:29:21.877Z,16.76
2022-08-22T05:30:26.952Z,16.78
2022-08-22T05:31:36.804Z,16.78
2022-08-22T05:33:27.414Z,16.84
2022-08-22T05:34:35.858Z,16.91
2022-08-22T05:35:49.531Z,16.95
2022-08-22T05:36:58.787Z,16.85
2022-08-22T05:38:02.751Z,17.03
2022-08-22T05:39:13.087Z,17.05
2022-08-22T05:40:22.354Z,17.19
2022-08-22T05:41:27.222Z,17.15
2022-08-22T05:42:33.647Z,17.23
2022-08-22T05:43:39.252Z,17.27
2022-08-22T05:44:42.366Z,17.31
2022-08-22T05:45:47.064Z,17.26
2022-08-22T05:46:54.476Z,17.36
2022-08-22T05:48:03.146Z,17.46
2022-08-22T05:49:12.677Z,17.49
2022-08-22T05:50:19.470Z,17.57
2022-08-22T05:51:36.818Z,17.57
2022-08-22T05:53:12.470Z,17.69
2022-08-22T05:54:33.768Z,17.66
2022-08-22T05:55:57.087Z,17.83
2022-08-22T05:57:18.769Z,17.89
2022-08-22T05:59:02.168Z,17.99
2022-08-22T06:00:11.845Z,18.02
2022-08-22T06:01:31.772Z,18.21
2022-08-22T06:02:52.396Z,18.36
2022-08-22T06:03:59.977Z,18.49
2022-08-22T06:05:07.581Z,18.52
2022-08-22T06:06:16.473Z,18.65
2022-08-22T06:07:23.569Z,18.77
2022-08-22T06:08:31.692Z,18.87
2022-08-22T06:10:01.059Z,18.94
2022-08-22T06:11:09.223Z,18.95
2022-08-22T06:12:21.874Z,19.14
2022-08-22T06:13:32.473Z,19.29
2022-08-22T06:14:53.356Z,19.35
2022-08-22T06:16:07.500Z,19.47
2022-08-22T06:17:16.652Z,19.53
2022-08-22T06:18:24.192Z,19.56
2022-08-22T06:19:26.053Z,19.63
2022-08-22T06:20:46.469Z,19.75
2022-08-22T06:21:50.965Z,19.82
2022-08-22T06:22:57.601Z,19.89
2022-08-22T06:24:01.413Z,19.92
2022-08-22T06:25:14.125Z,20.06
2022-08-22T06:26:20.772Z,20.14
2022-08-22T06:27:27.008Z,20.03
2022-08-22T06:28:54.986Z,20.35
2022-08-22T06:30:00.727Z,20.43
2022-08-22T06:31:04.608Z,20.63
2022-08-22T06:32:34.138Z,20.80
2022-08-22T06:33:53.135Z,21.04
2022-08-22T06:35:03.917Z,21.35
2022-08-22T06:36:31.351Z,21.60
2022-08-22T06:37:39.419Z,21.75
2022-08-22T06:39:02.848Z,22.03
2022-08-22T06:40:07.333Z,22.14
2022-08-22T06:41:10.591Z,22.46
2022-08-22T06:42:17.052Z,22.63
2022-08-22T06:43:19.855Z,23.02
2022-08-22T06:44:25.820Z,23.53
2022-08-22T06:45:32.099Z,23.98
2022-08-22T06:46:37.711Z,24.31
2022-08-22T06:47:49.859Z,24.72
2022-08-22T06:48:55.606Z,25.04
2022-08-22T06:50:03.160Z,25.36
2022-08-22T06:51:08.260Z,26.01
2022-08-22T06:52:17.792Z,26.73
2022-08-22T06:53:25.888Z,27.15
2022-08-22T06:54:34.260Z,27.35
2022-08-22T06:55:40.421Z,27.03
2022-08-22T06:56:46.195Z,27.12
2022-08-22T06:57:56.533Z,27.51
2022-08-22T06:59:02.885Z,28.21
2022-08-22T07:00:13.015Z,28.71
2022-08-22T07:01:20.054Z,28.63
2022-08-22T07:02:26.480Z,29.19
2022-08-22T07:03:35.444Z,29.26
2022-08-22T07:04:37.308Z,28.95
2022-08-22T07:05:42.800Z,28.66
2022-08-22T07:06:50.061Z,29.14
2022-08-22T07:07:52.735Z,29.15
2022-08-22T07:08:55.768Z,29.36
2022-08-22T07:09:57.909Z,29.28
2022-08-22T07:11:30.344Z,29.00
2022-08-22T07:12:39.044Z,29.16
2022-08-22T07:13:46.841Z,28.92
2022-08-22T07:14:52.269Z,29.14
2022-08-22T07:15:57.491Z,29.68
2022-08-22T07:17:03.564Z,30.16
2022-08-22T07:18:18.871Z,30.13
2022-08-22T07:19:33.943Z,29.90
2022-08-22T07:20:45.610Z,30.33
2022-08-22T07:21:48.772Z,30.63
2022-08-22T07:22:58.944Z,30.66
2022-08-22T07:24:01.376Z,30.73
2022-08-22T07:25:13.290Z,30.72
2022-08-22T07:26:17.522Z,30.10
2022-08-22T07:27:40.382Z,29.82
2022-08-22T07:28:51.252Z,28.92
2022-08-22T07:30:06.869Z,28.91
2022-08-22T07:31:24.954Z,28.99
2022-08-22T07:32:51.842Z,29.51
2022-08-22T07:33:59.965Z,29.16
2022-08-22T07:35:08.849Z,29.32
2022-08-22T07:36:31.462Z,29.64
2022-08-22T07:37:52.367Z,29.99
2022-08-22T07:39:25.174Z,30.58
2022-08-22T07:40:35.035Z,30.71
2022-08-22T07:42:05.520Z,30.24
2022-08-22T07:43:31.862Z,30.57
2022-08-22T07:44:52.057Z,30.65
2022-08-22T07:46:28.746Z,30.45
2022-08-22T07:47:46.953Z,30.71
2022-08-22T07:49:10.522Z,30.59
2022-08-22T07:50:17.141Z,30.52
2022-08-22T07:51:33.738Z,30.90
2022-08-22T07:52:42.882Z,30.86
2022-08-22T07:54:15.495Z,31.10
2022-08-22T07:55:22.570Z,31.12
2022-08-22T07:56:28.981Z,31.35
2022-08-22T07:57:36.439Z,31.33
2022-08-22T07:58:40.521Z,31.34
2022-08-22T07:59:52.751Z,31.16
2022-08-22T08:00:55.359Z,31.11
2022-08-22T08:01:59.770Z,31.32
2022-08-22T08:03:06.651Z,31.36
2022-08-22T08:04:13.088Z,31.23
2022-08-22T08:05:15.727Z,30.92
2022-08-22T08:06:17.379Z,31.34
2022-08-22T08:07:24.196Z,30.94
2022-08-22T08:08:28.445Z,30.80
2022-08-22T08:09:33.515Z,31.17
2022-08-22T08:10:39.710Z,30.80
2022-08-22T08:11:43.558Z,30.49
2022-08-22T08:12:57.929Z,30.74
2022-08-22T08:14:07.539Z,30.89
2022-08-22T08:15:15.228Z,30.92
2022-08-22T08:16:20.053Z,30.78
2022-08-22T08:17:28.772Z,30.81
2022-08-22T08:18:35.939Z,30.84
2022-08-22T08:19:40.428Z,30.91
2022-08-22T08:20:42.331Z,31.26
2022-08-22T08:21:51.187Z,31.28
2022-08-22T08:22:54.983Z,31.23
2022-08-22T08:23:58.106Z,31.32
2022-08-22T08:25:01.187Z,31.29
2022-08-22T08:26:12.963Z,31.63
2022-08-22T08:27:37.245Z,31.75
2022-08-22T08:28:44.156Z,32.17
2022-08-22T08:29:54.545Z,32.46
2022-08-22T08:31:02.210Z,33.05
2022-08-22T08:32:05.843Z,33.23
2022-08-22T08:33:26.279Z,33.56
2022-08-22T08:34:32.351Z,33.14
2022-08-22T08:35:42.391Z,32.93
2022-08-22T08:37:20.444Z,32.78
2022-08-22T08:38:26.381Z,32.88
2022-08-22T08:39:39.418Z,32.67
2022-08-22T08:40:53.147Z,32.64
2022-08-22T08:42:03.883Z,33.10
2022-08-22T08:43:34.717Z,33.82
2022-08-22T08:44:45.861Z,34.69
2022-08-22T08:46:12.384Z,35.14
2022-08-22T08:47:22.334Z,35.52
2022-08-22T08:48:44.246Z,35.15
2022-08-22T08:50:07.220Z,34.97
2022-08-22T08:51:16.950Z,34.65
2022-08-22T08:53:12.927Z,34.75
2022-08-22T08:54:32.786Z,34.90
2022-08-22T08:56:07.029Z,34.47
2022-08-22T08:57:32.188Z,35.41
2022-08-22T08:58:33.981Z,35.70
2022-08-22T09:00:16.314Z,35.10
2022-08-22T09:01:27.804Z,34.63
2022-08-22T09:02:45.326Z,34.57
2022-08-22T09:04:19.602Z,34.82
2022-08-22T09:05:43.944Z,34.71
2022-08-22T09:07:18.736Z,34.97
2022-08-22T09:08:45.049Z,34.99
2022-08-22T09:10:22.356Z,34.76
2022-08-22T09:11:48.895Z,35.09
2022-08-22T09:13:24.984Z,35.28
2022-08-22T09:14:45.227Z,34.92
2022-08-22T09:16:24.598Z,35.22
2022-08-22T09:17:38.210Z,34.98
2022-08-22T09:19:01.293Z,35.01
2022-08-22T09:20:47.505Z,35.00
2022-08-22T09:21:52.770Z,34.98
2022-08-22T09:23:10.131Z,34.62
2022-08-22T09:24:36.760Z,33.49
2022-08-22T09:25:46.198Z,33.04
2022-08-22T09:26:54.051Z,33.47
2022-08-22T09:28:10.425Z,33.67
2022-08-22T09:29:30.520Z,34.12
2022-08-22T09:30:58.687Z,35.02
2022-08-22T09:32:13.085Z,35.19
2022-08-22T09:33:55.323Z,35.42
2022-08-22T09:35:26.652Z,35.30
2022-08-22T09:37:02.369Z,35.90
2022-08-22T09:38:10.191Z,36.06
2022-08-22T09:39:32.095Z,36.87
2022-08-22T09:41:15.016Z,36.77
2022-08-22T09:42:44.992Z,37.04
2022-08-22T09:43:59.116Z,36.79
2022-08-22T09:45:19.602Z,37.22
2022-08-22T09:46:32.150Z,37.58
2022-08-22T09:48:07.901Z,37.95
2022-08-22T09:49:17.202Z,38.15
2022-08-22T09:50:36.532Z,38.86
2022-08-22T09:52:14.433Z,38.37
2022-08-22T09:53:41.541Z,36.74
2022-08-22T09:54:54.594Z,36.20
2022-08-22T09:56:19.616Z,37.42
2022-08-22T09:57:56.252Z,38.30
2022-08-22T09:59:09.958Z,38.81
2022-08-22T10:00:22.490Z,37.44
2022-08-22T10:01:42.314Z,35.37
2022-08-22T10:02:50.355Z,36.10
2022-08-22T10:04:07.270Z,36.79
2022-08-22T10:05:40.729Z,36.87
2022-08-22T10:07:01.109Z,37.01
2022-08-22T10:08:13.656Z,36.62
2022-08-22T10:09:31.444Z,36.69
2022-08-22T10:10:57.842Z,37.44
2022-08-22T10:12:12.456Z,37.79
2022-08-22T10:13:29.557Z,37.57
2022-08-22T10:14:50.667Z,38.66
2022-08-22T10:16:01.902Z,39.21
2022-08-22T10:17:29.773Z,39.38
2022-08-22T10:18:53.299Z,38.79
2022-08-22T10:20:07.721Z,38.98
2022-08-22T10:21:37.588Z,39.18
2022-08-22T10:22:39.330Z,38.80
2022-08-22T10:23:40.773Z,38.95
2022-08-22T10:25:13.827Z,39.82
2022-08-22T10:26:43.518Z,40.24
2022-08-22T10:28:06.420Z,39.95
2022-08-22T10:29:29.929Z,39.01
2022-08-22T10:30:56.132Z,39.10
2022-08-22T10:32:13.914Z,39.26
2022-08-22T10:33:31.673Z,40.15
2022-08-22T10:34:41.673Z,39.99
2022-08-22T10:35:43.944Z,40.04
2022-08-22T10:37:14.575Z,39.87
2022-08-22T10:38:32.409Z,39.58
2022-08-22T10:39:47.445Z,40.38
2022-08-22T10:41:13.872Z,40.18
2022-08-22T10:42:24.323Z,41.27
2022-08-22T10:44:01.228Z,41.19
2022-08-22T10:45:23.620Z,40.41
2022-08-22T10:46:42.141Z,39.79
2022-08-22T10:48:19.285Z,39.97
2022-08-22T10:49:29.507Z,40.48
2022-08-22T10:50:56.134Z,41.08
2022-08-22T10:52:15.723Z,40.29
2022-08-22T10:53:51.578Z,39.96
2022-08-22T10:55:00.585Z,39.88
2022-08-22T10:56:21.482Z,39.72
2022-08-22T10:57:52.841Z,40.57
2022-08-22T10:58:58.066Z,41.20
2022-08-22T11:00:22.694Z,41.25
2022-08-22T11:01:38.426Z,41.05
2022-08-22T11:03:10.962Z,39.32
2022-08-22T11:04:43.916Z,38.08
2022-08-22T11:05:50.629Z,36.09
2022-08-22T11:07:28.912Z,36.47
2022-08-22T11:08:39.843Z,37.93
2022-08-22T11:09:53.846Z,38.67
2022-08-22T11:11:19.356Z,39.35
2022-08-22T11:12:44.497Z,39.63
2022-08-22T11:14:19.887Z,40.28
2022-08-22T11:15:46.491Z,41.10
2022-08-22T11:17:28.945Z,41.02
2022-08-22T11:18:51.435Z,41.18
2022-08-22T11:20:21.455Z,39.97
2022-08-22T11:21:51.164Z,39.51
2022-08-22T11:23:12.465Z,39.77
2022-08-22T11:24:55.365Z,38.72
2022-08-22T11:26:41.682Z,38.54
2022-08-22T11:28:11.849Z,39.51
2022-08-22T11:29:32.174Z,39.57
2022-08-22T11:30:43.772Z,38.84
2022-08-22T11:32:11.951Z,38.17
2022-08-22T11:33:21.889Z,37.58
2022-08-22T11:34:46.841Z,37.52
2022-08-22T11:36:17.593Z,38.03
2022-08-22T11:37:42.451Z,37.71
2022-08-22T11:39:13.702Z,36.84
2022-08-22T11:40:43.823Z,37.46
2022-08-22T11:41:52.338Z,38.21
2022-08-22T11:43:07.685Z,39.04
2022-08-22T11:44:17.935Z,39.78
2022-08-22T11:45:31.293Z,40.34
2022-08-22T11:46:40.281Z,41.12
2022-08-22T11:47:57.592Z,41.50
2022-08-22T11:49:18.971Z,40.10
2022-08-22T11:50:35.198Z,39.25
2022-08-22T11:52:13.979Z,38.52
2022-08-22T11:53:31.815Z,38.61
2022-08-22T11:54:47.958Z,39.04
2022-08-22T11:56:13.458Z,39.28
2022-08-22T11:57:29.417Z,38.51
2022-08-22T11:58:55.949Z,38.77
2022-08-22T12:00:32.364Z,38.49
2022-08-22T12:01:46.390Z,38.23
2022-08-22T12:02:58.771Z,39.31
2022-08-22T12:04:06.341Z,39.41
2022-08-22T12:05:26.493Z,40.44
2022-08-22T12:06:56.245Z,40.57
2022-08-22T12:08:13.379Z,40.68
2022-08-22T12:09:23.821Z,41.11
2022-08-22T12:10:32.220Z,41.35
2022-08-22T12:11:48.968Z,41.45
2022-08-22T12:12:54.132Z,40.96
2022-08-22T12:14:07.593Z,40.33
2022-08-22T12:15:23.081Z,40.36
2022-08-22T12:16:29.187Z,40.18
2022-08-22T12:18:07.906Z,39.80
2022-08-22T12:20:12.784Z,40.02
2022-08-22T12:21:24.426Z,39.18
2022-08-22T12:22:49.996Z,37.92
2022-08-22T12:24:06.026Z,38.10
2022-08-22T12:25:18.206Z,38.81
2022-08-22T12:26:40.650Z,39.49
2022-08-22T12:27:55.194Z,39.83
2022-08-22T12:29:18.998Z,40.25
2022-08-22T12:30:39.338Z,40.57
2022-08-22T12:32:07.399Z,41.16
2022-08-22T12:33:33.085Z,41.65
2022-08-22T12:34:43.798Z,42.10
2022-08-22T12:35:57.569Z,42.45
2022-08-22T12:37:15.624Z,42.60
2022-08-22T12:38:26.677Z,42.89
2022-08-22T12:39:50.889Z,41.86
2022-08-22T12:41:08.014Z,41.61
2022-08-22T12:42:29.249Z,41.37
2022-08-22T12:43:50.836Z,42.18
2022-08-22T12:45:11.111Z,42.46
2022-08-22T12:46:28.347Z,42.10
2022-08-22T12:47:36.459Z,41.89
2022-08-22T12:49:00.123Z,41.22
2022-08-22T12:50:42.121Z,40.84
2022-08-22T12:51:50.608Z,39.93
2022-08-22T12:53:42.682Z,40.38
2022-08-22T12:55:07.409Z,41.27
2022-08-22T12:56:31.711Z,41.45
2022-08-22T12:57:50.523Z,41.86
2022-08-22T12:59:02.291Z,42.29
2022-08-22T13:00:31.465Z,42.69
2022-08-22T13:01:43.569Z,43.16
2022-08-22T13:02:46.730Z,42.68
2022-08-22T13:04:01.337Z,41.53
2022-08-22T13:05:19.604Z,41.77
2022-08-22T13:06:33.887Z,41.95
2022-08-22T13:07:37.674Z,41.52
2022-08-22T13:08:44.392Z,41.38
2022-08-22T13:09:57.796Z,40.98
2022-08-22T13:11:09.889Z,40.40
2022-08-22T13:12:28.257Z,40.81
2022-08-22T13:13:45.137Z,40.79
2022-08-22T13:15:15.144Z,41.26
2022-08-22T13:16:20.879Z,40.42
2022-08-22T13:17:25.812Z,40.27
2022-08-22T13:18:35.796Z,40.17
2022-08-22T13:19:52.392Z,40.01
2022-08-22T13:20:57.307Z,39.56
2022-08-22T13:22:03.761Z,38.88
2022-08-22T13:23:22.514Z,37.81
2022-08-22T13:24:39.452Z,36.72
2022-08-22T13:26:04.203Z,36.40
2022-08-22T13:27:20.289Z,36.07
2022-08-22T13:28:24.040Z,35.71
2022-08-22T13:29:42.867Z,35.43
2022-08-22T13:30:45.401Z,34.83
2022-08-22T13:32:00.057Z,34.74
2022-08-22T13:33:25.691Z,34.65
2022-08-22T13:34:38.488Z,34.86
2022-08-22T13:35:52.422Z,35.56
2022-08-22T13:36:59.549Z,36.03
2022-08-22T13:38:12.805Z,36.74
2022-08-22T13:39:16.942Z,37.09
2022-08-22T13:40:26.956Z,37.78
2022-08-22T13:41:36.924Z,37.78
2022-08-22T13:42:54.179Z,37.79
2022-08-22T13:44:21.450Z,36.75
2022-08-22T13:45:26.714Z,36.27
2022-08-22T13:46:30.715Z,36.74
2022-08-22T13:47:47.057Z,37.05
2022-08-22T13:48:56.647Z,37.44
2022-08-22T13:50:10.121Z,37.87
2022-08-22T13:51:37.591Z,38.42
2022-08-22T13:52:53.739Z,39.19
2022-08-22T13:54:10.845Z,38.20
2022-08-22T13:55:18.122Z,37.56
2022-08-22T13:56:26.311Z,36.00
2022-08-22T13:57:31.530Z,36.28
2022-08-22T13:58:44.106Z,36.45
2022-08-22T13:59:59.467Z,36.70
2022-08-22T14:01:34.851Z,37.23
2022-08-22T14:03:00.854Z,37.85
2022-08-22T14:04:28.457Z,37.80
2022-08-22T14:05:48.163Z,37.96
2022-08-22T14:07:01.777Z,38.01
2022-08-22T14:08:26.387Z,37.64
2022-08-22T14:09:47.385Z,37.35
2022-08-22T14:10:58.001Z,37.56
2022-08-22T14:12:06.512Z,37.80
2022-08-22T14:13:10.982Z,37.71
2022-08-22T14:14:20.573Z,37.69
2022-08-22T14:15:32.092Z,38.45
2022-08-22T14:16:58.159Z,38.69
2022-08-22T14:18:14.477Z,38.93
2022-08-22T14:19:58.740Z,38.94
2022-08-22T14:21:27.921Z,38.49
2022-08-22T14:22:37.862Z,38.71
2022-08-22T14:23:40.072Z,39.01
2022-08-22T14:24:47.691Z,39.17
2022-08-22T14:25:57.721Z,38.97
2022-08-22T14:26:59.965Z,38.54
2022-08-22T14:28:40.918Z,38.57
2022-08-22T14:29:50.063Z,38.81
2022-08-22T14:30:59.476Z,38.64
2022-08-22T14:32:12.154Z,38.36
2022-08-22T14:33:22.144Z,38.55
2022-08-22T14:34:26.307Z,38.60
2022-08-22T14:35:35.170Z,38.50
2022-08-22T14:37:11.314Z,38.68
2022-08-22T14:38:29.833Z,38.24
2022-08-22T14:39:42.907Z,37.64
2022-08-22T14:40:52.027Z,37.41
2022-08-22T14:42:14.571Z,37.61
2022-08-22T14:43:29.191Z,37.51
2022-08-22T14:45:00.288Z,37.54
2022-08-22T14:46:08.017Z,38.28
2022-08-22T14:47:54.221Z,38.41
2022-08-22T14:49:29.968Z,38.56
2022-08-22T14:51:14.547Z,38.35
2022-08-22T14:52:32.019Z,38.84
2022-08-22T14:53:37.981Z,39.09
2022-08-22T14:54:40.314Z,39.51
2022-08-22T14:55:54.051Z,39.89
2022-08-22T14:56:57.209Z,40.15
2022-08-22T14:58:05.880Z,39.80
2022-08-22T14:59:12.491Z,39.66
2022-08-22T15:00:45.790Z,39.94
2022-08-22T15:02:10.061Z,40.39
2022-08-22T15:03:20.526Z,40.58
2022-08-22T15:04:27.991Z,40.69
2022-08-22T15:05:45.539Z,39.59
2022-08-22T15:07:02.241Z,38.69
2022-08-22T15:08:05.501Z,38.59
2022-08-22T15:09:15.316Z,38.44
2022-08-22T15:10:34.175Z,38.52
2022-08-22T15:11:36.595Z,38.32
2022-08-22T15:12:46.519Z,38.63
2022-08-22T15:14:20.810Z,38.40
2022-08-22T15:15:49.387Z,38.66
2022-08-22T15:16:57.550Z,38.18
2022-08-22T15:18:00.041Z,37.97
2022-08-22T15:19:03.757Z,37.87
2022-08-22T15:20:22.831Z,37.71
2022-08-22T15:21:33.190Z,37.67
2022-08-22T15:22:46.053Z,37.87
2022-08-22T15:23:48.258Z,37.47
2022-08-22T15:24:56.367Z,37.10
2022-08-22T15:26:05.026Z,36.62
2022-08-22T15:27:07.071Z,36.66
2022-08-22T15:28:20.149Z,36.71
2022-08-22T15:29:24.690Z,36.61
2022-08-22T15:30:37.932Z,36.70
2022-08-22T15:31:49.609Z,36.90
2022-08-22T15:32:51.305Z,37.15
2022-08-22T15:34:05.674Z,37.09
2022-08-22T15:35:26.371Z,37.28
2022-08-22T15:36:28.085Z,37.42
2022-08-22T15:37:33.502Z,37.38
2022-08-22T15:38:41.999Z,37.24
2022-08-22T15:40:26.965Z,36.71
2022-08-22T15:41:36.456Z,36.36
2022-08-22T15:42:48.929Z,36.00
2022-08-22T15:44:32.673Z,35.73
2022-08-22T15:45:39.532Z,35.81
2022-08-22T15:46:45.838Z,36.24
2022-08-22T15:47:53.396Z,36.33
2022-08-22T15:49:04.179Z,36.56
2022-08-22T15:50:14.708Z,36.59
2022-08-22T15:51:51.716Z,36.59
2022-08-22T15:53:08.699Z,35.94
2022-08-22T15:54:24.804Z,36.13
2022-08-22T15:55:28.236Z,36.04
2022-08-22T15:56:33.920Z,35.93
2022-08-22T15:57:41.425Z,35.85
2022-08-22T15:58:53.705Z,35.78
2022-08-22T15:59:59.054Z,35.47
2022-08-22T16:01:19.712Z,35.28
2022-08-22T16:02:28.032Z,35.08
2022-08-22T16:03:32.888Z,35.32
2022-08-22T16:04:47.425Z,35.64
2022-08-22T16:05:58.829Z,35.83
2022-08-22T16:07:02.713Z,35.73
2022-08-22T16:08:14.351Z,35.85
2022-08-22T16:09:46.724Z,35.74
2022-08-22T16:11:13.786Z,35.41
2022-08-22T16:12:30.993Z,34.94
2022-08-22T16:13:41.727Z,34.55
2022-08-22T16:14:49.990Z,34.63
2022-08-22T16:15:57.092Z,34.65
2022-08-22T16:17:04.398Z,34.63
2022-08-22T16:18:06.803Z,34.74
2022-08-22T16:19:19.110Z,34.55
2022-08-22T16:20:20.710Z,34.56
2022-08-22T16:21:22.336Z,34.23
2022-08-22T16:23:05.944Z,33.78
2022-08-22T16:24:07.614Z,33.47
2022-08-22T16:25:10.384Z,33.07